ADDS METAR Data INFO
IDs: Format: Raw Decoded Include TAF

Data at: 2054 UTC 24 Jun 2017

KLUD 242035Z AUTO 03009KT 10SM SCT017 SCT025 BKN031 25/20 A3014 RMK AO2 T02500200
KLUD 242015Z AUTO 03008KT 10SM SCT017 BKN022 BKN029 24/20 A3014 RMK AO2 T02420199
KLUD 241955Z AUTO 03008G14KT 10SM SCT015 24/20 A3014 RMK AO2 T02440200
KLUD 241935Z AUTO 02010KT 10SM SCT014 BKN021 24/21 A3013 RMK AO2 T02400205
KLUD 241915Z AUTO 03009G15KT 10SM SCT011 BKN017 BKN025 23/20 A3014 RMK AO2 T02330204
KLUD 241855Z AUTO 01007KT 10SM BKN010 BKN017 23/21 A3014 RMK AO2 T02330206
KLUD 241835Z AUTO 36009KT 10SM BKN008 23/20 A3013 RMK AO2 T02270201
KLUD 241815Z AUTO 04008KT 10SM SCT008 22/20 A3012 RMK AO2 T02200202
KLUD 241755Z AUTO 02008KT 10SM SCT010 22/20 A3014 RMK AO2 60069 T02160201 10216 20195
KLUD 241735Z AUTO 35007G14KT 320V020 10SM SCT008 SCT018 SCT025 21/20 A3015 RMK AO2 T02110199
KLUD 241715Z AUTO 36005G14KT 10SM SCT008 SCT012 SCT018 21/20 A3014 RMK AO2 T02060197
KLUD 241655Z AUTO 35006KT 10SM -RA SCT010 20/20 A3015 RMK AO2 P0001 T02030196
KLUD 241635Z AUTO 13009G19KT 7SM SCT008 20/19 A3011 RMK AO2 P0001 T02020186
KLUD 241615Z AUTO 14014KT 10SM -RA SCT008 BKN014 BKN027 20/19 A3013 RMK AO2 P0001 T02000189
KLUD 241555Z AUTO 13010G14KT 7SM -RA SCT010 OVC016 20/19 A3015 RMK AO2 P0010 T01980190
KLUD 241535Z AUTO 12010KT 7SM -RA BKN018 OVC023 20/19 A3018 RMK AO2 P0008 T02000193
KLUD 241515Z AUTO 11009KT 5SM -RA OVC020 20/19 A3018 RMK AO2 P0005 T01980191
KLUD 241455Z AUTO 10005KT 5SM RA BKN020 OVC025 20/19 A3019 RMK AO2 P0013 60058 T02000192
KLUD 241435Z AUTO 12006KT 7SM RA BKN017 OVC024 20/19 A3018 RMK AO2 P0010 T02010194
KLUD 241415Z AUTO 09007KT 7SM RA BKN016 OVC022 20/20 A3017 RMK AO2 P0005 T02000195
KLUD 241355Z AUTO 07009KT 4SM RA BKN012 BKN016 OVC022 20/19 A3017 RMK AO2 P0024 T02000194
KLUD 241335Z AUTO 06008KT 3SM RA OVC012 20/20 A3018 RMK AO2 P0017 T02000195
KLUD 241315Z AUTO 04008KT 3SM RA OVC013 21/20 A3018 RMK AO2 P0009 T02050197
KLUD 241255Z AUTO 02007KT 3SM +RA SCT006 OVC013 21/20 A3015 RMK AO2 P0021 T02050199
KLUD 241235Z AUTO 01006KT 4SM RA BKN010 OVC014 20/19 A3013 RMK AO2 P0012 T01980193
KLUD 241215Z AUTO 32003KT 2SM RA SCT004 OVC012 20/19 A3013 RMK AO2 P0006 T01950189
KLUD 241155Z AUTO 00000KT 2SM RA SCT009 OVC014 20/19 A3012 RMK AO2 P0024 60178 70178 T01950186 10272 20192
KLUD 241135Z AUTO 03006KT 3SM RA OVC012 19/19 A3011 RMK AO2 P0016 T01920185
KLUD 241115Z AUTO 03016G22KT 2SM RA BKN006 OVC014 20/19 A3009 RMK AO2 P0010 T01960190
KLUD 241055Z AUTO 03013G28KT 1SM +RA OVC006 20/19 A3006 RMK AO2 P0150 T01980192
KLUD 241035Z AUTO 02024G37KT 1/2SM +RA OVC004 20/19 A3002 RMK AO2 P0109 T02000194
KLUD 241015Z AUTO 36019G27KT 1/2SM +RA BKN004 OVC012 20/19 A3002 RMK AO2 P0055 T02010191
KLUD 240955Z AUTO 01006KT 7SM -RA BKN016 24/23 A3000 RMK AO2 P0003 T02370225
KLUD 240935Z AUTO 05007KT 7SM -RA SCT016 SCT060 24/23 A2998 RMK AO2 P0001 T02400225
KLUD 240915Z AUTO 10005KT 10SM SCT010 SCT014 SCT060 25/22 A2996 RMK AO2 T02500216
KLUD 240855Z AUTO 00000KT 10SM SCT011 OVC016 25/22 A2997 RMK AO2 T02470222
KLUD 240835Z AUTO 16006KT 10SM OVC014 25/22 A2998 RMK AO2 T02480220
KLUD 240815Z AUTO 12009KT 10SM OVC016 25/22 A2997 RMK AO2 T02520220
KLUD 240755Z AUTO 13010G15KT 10SM BKN020 OVC049 26/22 A2998 RMK AO2 T02590222
KLUD 240735Z AUTO 07009G16KT 10SM SCT020 BKN049 BKN100 26/21 A2997 RMK AO2 T02600211
KLUD 240715Z AUTO 06011G16KT 10SM CLR 26/21 A2997 RMK AO2 T02610211
KLUD 240655Z AUTO 06013G19KT 10SM SCT039 SCT048 SCT090 27/21 A2997 RMK AO2 T02650210
KLUD 240635Z AUTO 06013G19KT 10SM CLR 27/21 A2996 RMK AO2 T02650208
KLUD 240615Z AUTO 05014G19KT 10SM SCT028 SCT039 SCT048 27/21 A2996 RMK AO2 T02680205
KLUD 240555Z AUTO 06011G17KT 10SM SCT028 SCT044 27/21 A2998 RMK AO2 T02720205 10355 20272 403700233
KLUD 240535Z AUTO 05015G22KT 10SM SCT029 SCT036 BKN044 28/21 A2997 RMK AO2 T02760207
KLUD 240515Z AUTO 04010G20KT 10SM SCT027 SCT034 28/23 A2997 RMK AO2 T02820225
KLUD 240455Z AUTO 06019G22KT 10SM SCT050 SCT060 29/23 A2996 RMK AO2 T02910230
KLUD 240435Z AUTO 05011KT 10SM SCT043 BKN050 29/23 A2995 RMK AO2 T02940228
KLUD 240415Z AUTO 05008KT 10SM CLR 30/23 A2994 RMK AO2 T02950226
KLUD 240355Z AUTO 05008KT 10SM CLR 30/23 A2993 RMK AO2 T02970225
KLUD 240335Z AUTO 06009KT 10SM SCT060 30/23 A2992 RMK AO2 T02960229
KLUD 240315Z AUTO 05004KT 10SM CLR 30/23 A2992 RMK AO2 T02950230
KLUD 240255Z AUTO 04004KT 10SM CLR 30/23 A2991 RMK AO2 T02970226
KLUD 240235Z AUTO 05005KT 10SM CLR 30/22 A2989 RMK AO2 T03000219
KLUD 240215Z AUTO 07004KT 10SM CLR 31/22 A2988 RMK AO2 T03050215
KLUD 240155Z AUTO 07005KT 10SM CLR 31/21 A2988 RMK AO2 T03130211
KLUD 240135Z AUTO 08006KT 10SM CLR 32/21 A2987 RMK AO2 T03160211
KLUD 240115Z AUTO 07005KT 10SM SCT060 SCT075 32/22 A2987 RMK AO2 T03210220
KLUD 240055Z AUTO 07005KT 10SM SCT060 33/22 A2985 RMK AO2 T03280223
KLUD 240035Z AUTO 09006KT 10SM CLR 34/22 A2984 RMK AO2 T03350217
KLUD 240015Z AUTO 09003KT 10SM CLR 35/21 A2983 RMK AO2 T03470210
KLUD 232355Z AUTO 08007KT 10SM CLR 36/20 A2983 RMK AO2 T03560199 10370 20343
KLUD 232335Z AUTO 08007KT 10SM CLR 36/19 A2982 RMK AO2 T03600191
KLUD 232315Z AUTO 08007KT 10SM CLR 36/18 A2982 RMK AO2 T03630183
KLUD 232255Z AUTO 09008KT 10SM CLR 36/20 A2981 RMK AO2 T03620201
KLUD 232235Z AUTO 06009KT 10SM CLR 36/21 A2981 RMK AO2 T03610206
KLUD 232215Z AUTO 09008KT 10SM CLR 36/21 A2981 RMK AO2 T03620212
KLUD 232155Z AUTO 09007KT 10SM CLR 37/21 A2982 RMK AO2 T03670210
KLUD 232135Z AUTO 11008KT 10SM CLR 36/21 A2982 RMK AO2 T03640207
KLUD 232115Z AUTO 09010KT 050V110 10SM CLR 37/20 A2982 RMK AO2 T03670202
KLUD 232055Z AUTO 05003KT 10SM CLR 37/21 A2983 RMK AO2 T03660207
KLUD 232035Z AUTO 07008KT 10SM CLR 37/19 A2983 RMK AO2 T03680190
KLUD 232015Z AUTO 03005KT 10SM CLR 37/19 A2983 RMK AO2 T03650190
KLUD 231955Z AUTO 07003KT 10SM CLR 36/21 A2983 RMK AO2 T03600211
KLUD 231935Z AUTO 02005KT 10SM CLR 36/21 A2983 RMK AO2 T03580205
KLUD 231915Z AUTO 08003KT 10SM CLR 36/20 A2983 RMK AO2 T03620196
KLUD 231855Z AUTO 12004KT 10SM CLR 35/21 A2983 RMK AO2 T03540207
KLUD 231835Z AUTO 13004KT 10SM CLR 35/20 A2982 RMK AO2 T03520199
KLUD 231815Z AUTO 05006KT 10SM CLR 35/21 A2984 RMK AO2 T03480210
KLUD 231755Z AUTO 00000KT 10SM CLR 34/22 A2984 RMK AO2 T03440218 10346 20243
KLUD 231735Z AUTO 07004KT 10SM CLR 34/23 A2983 RMK AO2 T03380228
KLUD 231715Z AUTO 12003KT 10SM CLR 34/22 A2982 RMK AO2 T03360223
KLUD 231655Z AUTO 09003KT 10SM CLR 32/23 A2982 RMK AO2 T03240229
KLUD 231635Z AUTO 00000KT 10SM CLR 32/23 A2982 RMK AO2 T03180227
KLUD 231615Z AUTO 15005KT 10SM CLR 32/23 A2981 RMK AO2 T03150229
KLUD 231555Z AUTO 16004KT 10SM CLR 31/23 A2981 RMK AO2 T03090232
KLUD 231535Z AUTO 17005KT 10SM CLR 30/23 A2981 RMK AO2 T03040230
KLUD 231515Z AUTO 00000KT 10SM CLR 29/23 A2981 RMK AO2 T02940227
KLUD 231455Z AUTO 17005KT 10SM CLR 29/23 A2980 RMK AO2 T02870231
KLUD 231435Z AUTO 13004KT 10SM CLR 28/23 A2981 RMK AO2 T02820230
KLUD 231415Z AUTO 00000KT 10SM CLR 27/23 A2982 RMK AO2 T02700230
KLUD 231355Z AUTO 20004KT 10SM CLR 27/23 A2981 RMK AO2 T02660232
KLUD 231335Z AUTO 18006KT 10SM CLR 26/23 A2980 RMK AO2 T02600231
KLUD 231315Z AUTO 20006KT 10SM CLR 26/23 A2980 RMK AO2 T02560231
KLUD 231255Z AUTO 19006KT 10SM CLR 26/23 A2979 RMK AO2 T02550230
KLUD 231235Z AUTO 19008KT 10SM CLR 25/23 A2977 RMK AO2 T02510230
KLUD 231215Z AUTO 18006KT 10SM CLR 25/23 A2977 RMK AO2 T02500229
KLUD 231155Z AUTO 16004KT 10SM CLR 24/23 A2977 RMK AO2 T02430226 10271 20233
KLUD 231135Z AUTO 14004KT 10SM CLR 23/22 A2976 RMK AO2 T02340221
KLUD 231115Z AUTO 14004KT 10SM CLR 24/22 A2975 RMK AO2 T02380222
KLUD 231055Z AUTO 15004KT 10SM CLR 24/22 A2974 RMK AO2 T02370220
KLUD 231035Z AUTO 14006KT 10SM CLR 24/22 A2973 RMK AO2 T02400221
KLUD 231015Z AUTO 13004KT 10SM CLR 24/22 A2974 RMK AO2 T02370219
KLUD 230955Z AUTO 15004KT 10SM CLR 24/22 A2975 RMK AO2 T02420220
KLUD 230935Z AUTO 17003KT 10SM CLR 25/22 A2975 RMK AO2 T02460220
KLUD 230915Z AUTO 15006KT 10SM CLR 24/22 A2973 RMK AO2 T02440220
KLUD 230855Z AUTO 16007KT 10SM CLR 25/22 A2974 RMK AO2 T02470220


Page loaded:  20:54 UTC  |   01:54 PM Pacific  |   02:54 PM Mountain  |   03:54 PM Central  |   04:54 PM Eastern

 

ADVISORIES

FORECASTS

FORECASTS

OBSERVATIONS

USER TOOLS

ABOUT US